createdAt,value
2018-12-14T00:00:19.359Z,93.17
2018-12-14T00:03:02.383Z,93.62
2018-12-14T00:05:45.636Z,93.64
2018-12-14T00:08:28.867Z,94.42
2018-12-14T00:11:13.104Z,93.37
2018-12-14T00:13:55.874Z,93.84
2018-12-14T00:16:38.038Z,93.84
2018-12-14T00:19:21.287Z,94.28
2018-12-14T00:22:05.123Z,94.20
2018-12-14T00:24:47.710Z,95.21
2018-12-14T00:27:30.930Z,94.72
2018-12-14T00:30:14.594Z,94.78
2018-12-14T00:32:58.986Z,94.95
2018-12-14T00:35:42.342Z,95.28
2018-12-14T00:38:25.518Z,95.15
2018-12-14T00:41:10.005Z,95.56
2018-12-14T00:43:53.899Z,95.29
2018-12-14T00:46:43.030Z,95.62
2018-12-14T00:49:25.491Z,95.73
2018-12-14T00:52:08.158Z,95.17
2018-12-14T00:54:50.914Z,94.97
2018-12-14T00:57:34.816Z,95.23
2018-12-14T01:00:17.940Z,95.48
2018-12-14T01:03:01.111Z,95.48
2018-12-14T01:05:44.091Z,95.08
2018-12-14T01:08:27.448Z,95.24
2018-12-14T01:11:12.277Z,94.38
2018-12-14T01:13:55.397Z,94.99
2018-12-14T01:16:38.847Z,94.46
2018-12-14T01:19:22.835Z,94.99
2018-12-14T01:22:06.573Z,95.94
2018-12-14T01:24:49.419Z,96.16
2018-12-14T01:27:32.747Z,95.99
2018-12-14T01:30:16.267Z,95.57
2018-12-14T01:33:00.007Z,96.10
2018-12-14T01:35:43.270Z,95.61
2018-12-14T01:38:25.880Z,95.88
2018-12-14T01:41:07.988Z,96.08
2018-12-14T01:43:52.798Z,96.05
2018-12-14T01:46:36.969Z,95.95
2018-12-14T01:49:19.847Z,95.54
2018-12-14T01:52:04.135Z,96.16
2018-12-14T01:54:46.648Z,95.13
2018-12-14T01:57:29.143Z,95.63
2018-12-14T02:00:12.148Z,95.83
2018-12-14T02:02:55.099Z,96.39
2018-12-14T02:05:38.296Z,96.10
2018-12-14T02:08:21.061Z,95.48
2018-12-14T02:11:03.905Z,95.62
2018-12-14T02:13:46.710Z,95.32
2018-12-14T02:16:29.933Z,96.17
2018-12-14T02:19:13.023Z,95.72
2018-12-14T02:21:56.240Z,95.93
2018-12-14T02:24:38.829Z,96.16
2018-12-14T02:27:21.699Z,96.35
2018-12-14T02:30:15.155Z,96.25
2018-12-14T02:32:58.579Z,95.26
2018-12-14T02:35:42.023Z,95.86
2018-12-14T02:38:25.440Z,95.63
2018-12-14T02:41:08.804Z,96.05
2018-12-14T02:43:52.357Z,95.70
2018-12-14T02:46:35.025Z,95.32
2018-12-14T02:49:18.244Z,95.56
2018-12-14T02:52:01.271Z,95.56
2018-12-14T02:54:44.707Z,94.88
2018-12-14T02:57:27.944Z,95.21
2018-12-14T03:00:11.367Z,94.79
2018-12-14T03:02:54.000Z,94.60
2018-12-14T03:05:36.217Z,94.18
2018-12-14T03:08:19.956Z,93.59
2018-12-14T03:11:04.172Z,94.21
2018-12-14T03:13:46.700Z,94.24
2018-12-14T03:16:29.891Z,93.56
2018-12-14T03:19:14.063Z,93.67
2018-12-14T03:21:57.511Z,93.63
2018-12-14T03:24:40.375Z,93.01
2018-12-14T03:27:24.431Z,93.24
2018-12-14T03:30:09.911Z,93.40
2018-12-14T03:32:53.148Z,92.98
2018-12-14T03:35:37.335Z,92.86
2018-12-14T03:38:20.763Z,92.96
2018-12-14T03:41:04.363Z,92.95
2018-12-14T03:43:47.536Z,93.15
2018-12-14T03:46:30.820Z,92.47
2018-12-14T03:49:14.561Z,93.04
2018-12-14T03:51:58.408Z,92.88
2018-12-14T03:54:41.629Z,92.08
2018-12-14T03:57:24.889Z,91.91
2018-12-14T04:00:09.872Z,91.89
2018-12-14T04:02:52.733Z,92.31
2018-12-14T04:05:35.320Z,93.07
2018-12-14T04:08:18.175Z,92.58
2018-12-14T04:11:02.117Z,93.40
2018-12-14T04:13:44.653Z,92.51
2018-12-14T04:16:27.885Z,93.81
2018-12-14T04:19:10.779Z,93.30
2018-12-14T04:21:53.663Z,93.34
2018-12-14T04:24:37.116Z,93.79
2018-12-14T04:27:20.252Z,93.74
2018-12-14T04:30:04.900Z,93.88
2018-12-14T04:32:47.440Z,93.80
2018-12-14T04:35:30.633Z,93.87
2018-12-14T04:38:13.801Z,94.52
2018-12-14T04:40:57.115Z,93.93
2018-12-14T04:43:39.835Z,94.79
2018-12-14T04:46:23.029Z,94.98
2018-12-14T04:49:07.075Z,95.30
2018-12-14T04:51:50.293Z,95.32
2018-12-14T04:54:33.738Z,94.55
2018-12-14T04:57:16.291Z,94.11
2018-12-14T04:59:59.122Z,94.61
2018-12-14T05:02:42.610Z,93.47
2018-12-14T05:05:25.389Z,94.16
2018-12-14T05:08:07.913Z,93.64
2018-12-14T05:10:50.743Z,93.50
2018-12-14T05:13:32.744Z,92.63
2018-12-14T05:16:16.485Z,92.93
2018-12-14T05:18:59.401Z,93.17
2018-12-14T05:21:43.739Z,93.28
2018-12-14T05:24:26.050Z,92.17
2018-12-14T05:27:08.963Z,92.24
2018-12-14T05:29:52.095Z,92.48
2018-12-14T05:32:34.468Z,92.54
2018-12-14T05:35:17.255Z,92.52
2018-12-14T05:38:01.054Z,91.94
2018-12-14T05:40:46.055Z,92.09
2018-12-14T05:43:28.678Z,91.40
2018-12-14T05:46:11.179Z,91.39
2018-12-14T05:48:54.148Z,91.59
2018-12-14T05:51:37.795Z,92.26
2018-12-14T05:54:21.999Z,91.79
2018-12-14T05:57:05.489Z,92.04
2018-12-14T05:59:48.612Z,91.67
2018-12-14T06:02:31.467Z,91.54
2018-12-14T06:05:14.949Z,90.75
2018-12-14T06:07:57.807Z,91.06
2018-12-14T06:10:40.700Z,90.60
2018-12-14T06:13:23.145Z,90.82
2018-12-14T06:16:08.047Z,90.30
2018-12-14T06:18:51.559Z,89.41
2018-12-14T06:21:34.759Z,89.95
2018-12-14T06:24:17.968Z,88.97
2018-12-14T06:27:00.895Z,89.86
2018-12-14T06:29:44.800Z,88.80
2018-12-14T06:32:28.791Z,88.46
2018-12-14T06:35:11.626Z,89.62
2018-12-14T06:37:54.129Z,89.78
2018-12-14T06:40:38.454Z,89.82
2018-12-14T06:43:21.344Z,89.41
2018-12-14T06:46:04.176Z,88.93
2018-12-14T06:48:48.118Z,88.79
2018-12-14T06:51:30.540Z,88.43
2018-12-14T06:54:12.843Z,88.34
2018-12-14T06:56:55.850Z,88.41
2018-12-14T06:59:38.539Z,88.40
2018-12-14T07:02:21.800Z,89.48
2018-12-14T07:05:04.099Z,88.26
2018-12-14T07:07:46.548Z,89.19
2018-12-14T07:10:29.071Z,89.19
2018-12-14T07:13:11.772Z,89.81
2018-12-14T07:15:55.341Z,89.41
2018-12-14T07:18:40.245Z,89.85
2018-12-14T07:21:22.951Z,89.97
2018-12-14T07:24:05.384Z,90.26
2018-12-14T07:26:48.799Z,89.84
2018-12-14T07:29:32.422Z,90.23
2018-12-14T07:32:15.819Z,90.75
2018-12-14T07:35:02.855Z,91.20
2018-12-14T07:37:46.848Z,90.97
2018-12-14T07:41:05.594Z,91.43
2018-12-14T07:44:11.202Z,91.58
2018-12-14T07:46:56.084Z,91.48
2018-12-14T07:49:40.596Z,92.18
2018-12-14T07:52:23.276Z,91.47
2018-12-14T07:55:06.463Z,92.00
2018-12-14T07:57:50.508Z,92.22
2018-12-14T08:00:33.452Z,92.69
2018-12-14T08:03:17.319Z,91.91
2018-12-14T08:06:00.312Z,92.46
2018-12-14T08:08:43.394Z,92.44
2018-12-14T08:11:26.372Z,93.03
2018-12-14T08:14:09.473Z,92.57
2018-12-14T08:16:56.636Z,92.91
2018-12-14T08:19:48.498Z,92.21
2018-12-14T08:22:32.808Z,92.58
2018-12-14T08:25:20.103Z,92.55
2018-12-14T08:28:15.883Z,92.63
2018-12-14T08:30:59.600Z,91.64
2018-12-14T08:33:42.941Z,92.38
2018-12-14T08:36:26.635Z,92.26
2018-12-14T08:39:11.048Z,92.38
2018-12-14T08:41:54.900Z,92.28
2018-12-14T08:44:39.139Z,91.37
2018-12-14T08:47:22.510Z,92.15
2018-12-14T08:50:06.963Z,92.37
2018-12-14T08:52:49.895Z,92.25
2018-12-14T08:55:34.567Z,92.21
2018-12-14T08:58:18.172Z,92.11
2018-12-14T09:01:03.198Z,92.13
2018-12-14T09:03:46.844Z,91.65
2018-12-14T09:06:30.563Z,90.87
2018-12-14T09:09:14.576Z,91.07
2018-12-14T09:11:58.399Z,90.88
2018-12-14T09:14:41.336Z,90.47
2018-12-14T09:17:24.951Z,90.09
2018-12-14T09:20:08.484Z,89.97
2018-12-14T09:22:52.779Z,89.21
2018-12-14T09:25:36.246Z,89.41
2018-12-14T09:28:21.466Z,88.84
2018-12-14T09:31:04.381Z,89.49
2018-12-14T09:33:47.079Z,88.66
2018-12-14T09:36:30.491Z,89.05
2018-12-14T09:41:48.157Z,88.69
2018-12-14T09:44:31.760Z,89.21
2018-12-14T09:47:14.765Z,87.96
2018-12-14T09:49:58.430Z,88.72
2018-12-14T09:52:43.105Z,87.80
2018-12-14T09:55:27.094Z,88.05
2018-12-14T09:58:11.345Z,87.29
2018-12-14T10:00:56.712Z,88.06
2018-12-14T10:03:39.698Z,87.09
2018-12-14T10:06:23.341Z,87.22
2018-12-14T10:09:06.927Z,87.59
2018-12-14T10:11:55.098Z,86.81
2018-12-14T10:14:35.468Z,85.92
2018-12-14T10:17:18.595Z,86.06
2018-12-14T10:20:03.035Z,86.57
2018-12-14T10:22:46.183Z,85.28
2018-12-14T10:25:29.211Z,86.24
2018-12-14T10:28:13.084Z,86.01
2018-12-14T10:30:57.436Z,85.30
2018-12-14T10:33:41.585Z,85.20
2018-12-14T10:36:26.303Z,84.48
2018-12-14T10:39:08.506Z,84.44
2018-12-14T10:41:51.239Z,85.42
2018-12-14T10:44:35.124Z,84.14
2018-12-14T10:47:23.203Z,84.08
2018-12-14T10:50:06.084Z,83.98
2018-12-14T10:52:50.644Z,84.16
2018-12-14T10:55:34.244Z,84.23
2018-12-14T10:58:18.139Z,83.97
2018-12-14T11:01:06.328Z,84.10
2018-12-14T11:03:49.336Z,83.35
2018-12-14T11:06:33.992Z,83.61
2018-12-14T11:09:17.684Z,83.02
2018-12-14T11:12:01.154Z,84.07
2018-12-14T11:14:43.466Z,83.00
2018-12-14T11:17:27.746Z,83.16
2018-12-14T11:20:12.856Z,83.19
2018-12-14T11:22:56.267Z,82.77
2018-12-14T11:25:41.032Z,82.62
2018-12-14T11:28:25.560Z,83.73
2018-12-14T11:31:08.587Z,83.38
2018-12-14T11:33:52.512Z,84.05
2018-12-14T11:36:36.068Z,82.40
2018-12-14T11:39:19.173Z,82.35
2018-12-14T11:42:04.117Z,81.45
2018-12-14T11:44:49.594Z,81.45
2018-12-14T11:47:32.961Z,81.74
2018-12-14T11:50:15.875Z,82.15
2018-12-14T11:52:59.639Z,81.96
2018-12-14T11:55:43.621Z,81.85
2018-12-14T11:58:27.082Z,81.83
2018-12-14T12:01:11.715Z,81.55
2018-12-14T12:03:56.080Z,81.73
2018-12-14T12:06:38.780Z,81.42
2018-12-14T12:09:24.640Z,80.65
2018-12-14T12:12:08.308Z,80.72
2018-12-14T12:14:51.683Z,80.72
2018-12-14T12:17:35.738Z,80.73
2018-12-14T12:20:18.820Z,80.34
2018-12-14T12:23:01.636Z,81.04
2018-12-14T12:25:45.236Z,80.52
2018-12-14T12:28:29.413Z,79.94
2018-12-14T12:31:12.328Z,80.22
2018-12-14T12:33:57.208Z,79.58
2018-12-14T12:36:40.831Z,79.63
2018-12-14T12:39:26.453Z,79.38
2018-12-14T12:42:11.811Z,78.76
2018-12-14T12:44:57.175Z,79.36
2018-12-14T12:47:40.803Z,78.55
2018-12-14T12:50:23.229Z,78.12
2018-12-14T12:53:06.670Z,78.44
2018-12-14T12:55:50.157Z,78.50
2018-12-14T12:58:33.135Z,78.18
2018-12-14T13:01:17.499Z,79.04
2018-12-14T13:04:00.941Z,77.74
2018-12-14T13:06:43.494Z,78.24
2018-12-14T13:09:26.639Z,77.51
2018-12-14T13:12:12.423Z,78.17
2018-12-14T13:14:55.201Z,77.23
2018-12-14T13:17:44.246Z,77.56
2018-12-14T13:20:29.653Z,77.30
2018-12-14T13:23:13.523Z,78.41
2018-12-14T13:25:57.048Z,77.10
2018-12-14T13:28:42.442Z,78.26
2018-12-14T13:31:26.996Z,77.14
2018-12-14T13:34:14.550Z,76.43
2018-12-14T13:37:00.984Z,77.43
2018-12-14T13:39:50.083Z,76.52
2018-12-14T13:42:38.604Z,77.55
2018-12-14T13:45:24.633Z,76.55
2018-12-14T13:48:08.685Z,77.07
2018-12-14T13:50:54.692Z,76.97
2018-12-14T13:53:40.421Z,76.63
2018-12-14T13:56:23.736Z,76.39
2018-12-14T13:59:08.938Z,76.44
2018-12-14T14:01:52.446Z,76.19
2018-12-14T14:04:35.923Z,76.91
2018-12-14T14:07:29.775Z,75.96
2018-12-14T14:10:18.386Z,75.98
2018-12-14T14:13:03.930Z,76.33
2018-12-14T14:15:50.835Z,76.98
2018-12-14T14:18:36.766Z,76.63
2018-12-14T14:21:24.847Z,76.06
2018-12-14T14:24:16.357Z,76.18
2018-12-14T14:27:00.114Z,75.53
2018-12-14T14:29:43.229Z,75.35
2018-12-14T14:32:27.847Z,75.54
2018-12-14T14:35:12.861Z,75.64
2018-12-14T14:37:57.682Z,76.35
2018-12-14T14:40:41.911Z,76.69
2018-12-14T14:43:25.702Z,75.59
2018-12-14T14:46:08.831Z,76.62
2018-12-14T14:48:53.104Z,75.97
2018-12-14T14:51:37.328Z,76.08
2018-12-14T14:54:29.666Z,75.58
2018-12-14T14:57:13.136Z,76.71
2018-12-14T14:59:56.322Z,75.32
2018-12-14T15:02:40.270Z,74.94
2018-12-14T15:05:22.603Z,75.35
2018-12-14T15:08:07.012Z,75.68
2018-12-14T15:10:51.921Z,75.21
2018-12-14T15:13:35.226Z,76.11
2018-12-14T15:16:18.766Z,75.19
2018-12-14T15:19:01.281Z,75.66
2018-12-14T15:21:47.055Z,75.53
2018-12-14T15:24:40.827Z,75.58
2018-12-14T15:27:24.604Z,75.43
2018-12-14T15:30:09.123Z,75.56
2018-12-14T15:32:52.759Z,77.00
2018-12-14T15:35:35.993Z,76.04
2018-12-14T15:38:20.139Z,75.89
2018-12-14T15:41:03.941Z,76.05
2018-12-14T15:43:47.455Z,76.72
2018-12-14T15:46:31.461Z,76.53
2018-12-14T15:49:14.873Z,76.79
2018-12-14T15:51:59.469Z,76.32
2018-12-14T15:54:43.644Z,75.50
2018-12-14T15:57:26.327Z,76.25
2018-12-14T16:00:10.472Z,76.14
2018-12-14T16:02:53.020Z,76.69
2018-12-14T16:05:37.484Z,76.43
2018-12-14T16:08:20.357Z,76.40
2018-12-14T16:11:03.109Z,74.75
2018-12-14T16:13:47.196Z,74.82
2018-12-14T16:16:29.950Z,74.94
2018-12-14T16:19:15.060Z,75.14
2018-12-14T16:21:58.109Z,76.06
2018-12-14T16:24:41.557Z,75.73
2018-12-14T16:27:37.915Z,76.00
2018-12-14T16:30:22.012Z,77.30
2018-12-14T16:33:05.556Z,76.78
2018-12-14T16:35:48.497Z,75.79
2018-12-14T16:38:31.359Z,76.35
2018-12-14T16:41:16.576Z,75.51
2018-12-14T16:43:59.126Z,75.80
2018-12-14T16:46:42.937Z,76.27
2018-12-14T16:49:27.923Z,75.97
2018-12-14T16:52:11.240Z,76.22
2018-12-14T16:54:54.948Z,77.43
2018-12-14T16:57:39.307Z,76.58
2018-12-14T17:00:22.124Z,77.17
2018-12-14T17:03:06.221Z,76.35
2018-12-14T17:05:49.626Z,78.14
2018-12-14T17:08:33.495Z,77.14
2018-12-14T17:11:18.503Z,77.69
2018-12-14T17:14:01.400Z,76.90
2018-12-14T17:16:45.344Z,76.61
2018-12-14T17:19:28.272Z,76.90
2018-12-14T17:22:13.129Z,76.81
2018-12-14T17:24:56.576Z,77.09
2018-12-14T17:27:40.907Z,76.67
2018-12-14T17:30:27.602Z,77.21
2018-12-14T17:33:11.476Z,76.75
2018-12-14T17:35:55.224Z,77.06
2018-12-14T17:38:39.906Z,77.27
2018-12-14T17:41:25.013Z,77.08
2018-12-14T17:44:08.267Z,77.33
2018-12-14T17:46:52.619Z,77.19
2018-12-14T17:49:36.836Z,77.38
2018-12-14T17:52:20.218Z,77.90
2018-12-14T17:55:04.471Z,77.57
2018-12-14T17:57:49.028Z,78.23
2018-12-14T18:00:32.044Z,77.80
2018-12-14T18:03:16.323Z,78.18
2018-12-14T18:06:00.107Z,78.06
2018-12-14T18:08:43.816Z,78.99
2018-12-14T18:11:27.692Z,77.91
2018-12-14T18:14:11.255Z,78.24
2018-12-14T18:16:55.771Z,78.44
2018-12-14T18:19:40.856Z,78.01
2018-12-14T18:22:24.276Z,79.37
2018-12-14T18:25:07.348Z,78.36
2018-12-14T18:27:51.124Z,78.92
2018-12-14T18:30:33.900Z,78.43
2018-12-14T18:33:17.928Z,78.31
2018-12-14T18:36:02.387Z,78.27
2018-12-14T18:38:45.031Z,78.85
2018-12-14T18:41:27.932Z,78.41
2018-12-14T18:44:12.174Z,78.66
2018-12-14T18:46:59.034Z,78.08
2018-12-14T18:49:43.696Z,79.45
2018-12-14T18:52:28.121Z,77.39
2018-12-14T18:55:12.027Z,76.92
2018-12-14T18:57:56.112Z,77.77
2018-12-14T19:00:39.500Z,77.17
2018-12-14T19:03:22.433Z,77.59
2018-12-14T19:06:06.763Z,77.36
2018-12-14T19:08:51.392Z,76.82
2018-12-14T19:11:34.703Z,76.56
2018-12-14T19:14:17.976Z,75.88
2018-12-14T19:17:02.486Z,75.89
2018-12-14T19:19:46.572Z,75.12
2018-12-14T19:22:30.354Z,75.36
2018-12-14T19:25:13.286Z,74.87
2018-12-14T19:27:56.408Z,74.87
2018-12-14T19:30:40.842Z,75.01
2018-12-14T19:33:24.098Z,75.50
2018-12-14T19:36:08.848Z,76.11
2018-12-14T19:38:52.195Z,76.18
2018-12-14T19:41:40.099Z,75.95
2018-12-14T19:44:23.945Z,75.88
2018-12-14T19:47:07.432Z,76.04
2018-12-14T19:49:50.695Z,76.74
2018-12-14T19:52:36.392Z,76.50
2018-12-14T19:55:21.874Z,76.81
2018-12-14T19:58:04.792Z,77.23
2018-12-14T20:00:49.031Z,77.21
2018-12-14T20:03:33.108Z,77.77
2018-12-14T20:06:16.324Z,77.86
2018-12-14T20:08:59.643Z,78.08
2018-12-14T20:11:43.377Z,78.28
2018-12-14T20:14:28.523Z,78.40
2018-12-14T20:17:13.235Z,77.84
2018-12-14T20:19:58.811Z,79.40
2018-12-14T20:22:41.489Z,78.54
2018-12-14T20:25:25.443Z,79.09
2018-12-14T20:28:09.145Z,78.77
2018-12-14T20:30:53.001Z,79.78
2018-12-14T20:33:36.773Z,79.19
2018-12-14T20:36:28.214Z,79.60
2018-12-14T20:39:11.016Z,79.23
2018-12-14T20:41:55.092Z,79.56
2018-12-14T20:44:40.726Z,79.35
2018-12-14T20:47:23.961Z,79.79
2018-12-14T20:50:08.671Z,79.74
2018-12-14T20:52:52.791Z,79.34
2018-12-14T20:55:35.917Z,79.70
2018-12-14T20:58:21.321Z,79.09
2018-12-14T21:01:06.913Z,79.28
2018-12-14T21:03:49.481Z,79.04
2018-12-14T21:06:33.520Z,80.43
2018-12-14T21:09:18.639Z,79.43
2018-12-14T21:12:05.841Z,79.77
2018-12-14T21:14:50.952Z,79.24
2018-12-14T21:17:34.781Z,80.05
2018-12-14T21:20:17.527Z,78.71
2018-12-14T21:26:45.252Z,78.90
2018-12-14T21:29:29.582Z,78.88
2018-12-14T21:32:13.115Z,79.06
2018-12-14T21:34:57.205Z,78.75
2018-12-14T21:37:40.288Z,78.74
2018-12-14T21:40:24.939Z,77.96
2018-12-14T21:43:08.305Z,77.68
2018-12-14T21:45:52.254Z,78.28
2018-12-14T21:48:35.579Z,77.83
2018-12-14T21:51:19.546Z,77.91
2018-12-14T21:54:04.295Z,77.98
2018-12-14T21:56:47.181Z,77.55
2018-12-14T21:59:30.054Z,77.87
2018-12-14T22:02:14.032Z,78.06
2018-12-14T22:04:58.618Z,77.97
2018-12-14T22:07:41.649Z,77.76
2018-12-14T22:10:24.405Z,78.13
2018-12-14T22:13:07.579Z,78.42
2018-12-14T22:15:54.960Z,78.27
2018-12-14T22:18:39.044Z,78.51
2018-12-14T22:21:22.221Z,78.22
2018-12-14T22:24:06.764Z,78.58
2018-12-14T22:26:50.812Z,78.56
2018-12-14T22:29:34.638Z,78.77
2018-12-14T22:32:22.865Z,78.74
2018-12-14T22:35:06.072Z,78.99
2018-12-14T22:37:49.836Z,79.35
2018-12-14T22:40:33.617Z,78.23
2018-12-14T22:43:21.990Z,78.94
2018-12-14T22:46:05.195Z,78.55
2018-12-14T22:48:49.582Z,78.65
2018-12-14T22:51:32.308Z,78.66
2018-12-14T22:54:16.969Z,78.80
2018-12-14T22:57:00.525Z,79.17
2018-12-14T22:59:45.082Z,78.64
2018-12-14T23:02:28.164Z,79.07
2018-12-14T23:05:10.782Z,77.53
2018-12-14T23:07:57.144Z,78.10
2018-12-14T23:10:47.996Z,78.82
2018-12-14T23:13:32.500Z,78.18
2018-12-14T23:16:14.993Z,77.92
2018-12-14T23:18:59.625Z,78.49
2018-12-14T23:21:45.223Z,77.85
2018-12-14T23:24:28.154Z,78.67
2018-12-14T23:27:12.434Z,79.10
2018-12-14T23:29:58.674Z,77.78
2018-12-14T23:32:42.916Z,78.08
2018-12-14T23:35:27.474Z,78.05
2018-12-14T23:38:14.644Z,78.29
2018-12-14T23:40:57.441Z,77.52
2018-12-14T23:43:41.992Z,77.53
2018-12-14T23:46:25.168Z,77.10
2018-12-14T23:49:08.457Z,77.20
2018-12-14T23:51:53.693Z,77.28
2018-12-14T23:54:37.467Z,76.87
2018-12-14T23:57:20.927Z,77.18
